createdAt,value
2022-09-27T00:01:04.380Z,12.30
2022-09-27T00:03:37.140Z,10.70
2022-09-27T00:06:11.997Z,10.27
2022-09-27T00:08:45.273Z,9.77
2022-09-27T00:11:39.393Z,9.98
2022-09-27T00:14:19.274Z,9.50
2022-09-27T00:16:51.602Z,10.35
2022-09-27T00:19:27.063Z,10.32
2022-09-27T00:21:59.607Z,8.55
2022-09-27T00:24:33.161Z,9.82
2022-09-27T00:27:05.581Z,9.88
2022-09-27T00:29:39.295Z,8.85
2022-09-27T00:32:11.742Z,9.38
2022-09-27T00:34:44.458Z,9.15
2022-09-27T00:37:16.940Z,8.95
2022-09-27T00:39:49.334Z,8.45
2022-09-27T00:42:21.671Z,9.18
2022-09-27T00:45:23.607Z,9.07
2022-09-27T00:48:03.080Z,9.30
2022-09-27T00:50:44.020Z,9.38
2022-09-27T00:53:24.802Z,9.32
2022-09-27T00:56:01.522Z,9.18
2022-09-27T00:58:44.890Z,9.50
2022-09-27T01:01:17.349Z,8.68
2022-09-27T01:04:24.180Z,8.40
2022-09-27T01:06:58.410Z,8.18
2022-09-27T01:09:31.042Z,8.35
2022-09-27T01:12:21.751Z,8.20
2022-09-27T01:15:15.196Z,7.63
2022-09-27T01:18:21.117Z,8.43
2022-09-27T01:21:14.724Z,7.88
2022-09-27T01:24:03.008Z,7.43
2022-09-27T01:26:50.228Z,7.57
2022-09-27T01:29:59.031Z,7.45
2022-09-27T01:32:37.405Z,7.13
2022-09-27T01:35:36.181Z,7.38
2022-09-27T01:38:37.851Z,7.28
2022-09-27T01:41:37.341Z,7.53
2022-09-27T01:44:51.842Z,7.00
2022-09-27T01:47:37.403Z,6.93
2022-09-27T01:50:43.135Z,7.40
2022-09-27T01:53:24.958Z,7.03
2022-09-27T01:56:34.475Z,7.47
2022-09-27T01:59:31.166Z,7.15
2022-09-27T02:02:28.348Z,7.07
2022-09-27T02:05:19.880Z,6.65
2022-09-27T02:08:04.528Z,6.95
2022-09-27T02:10:42.716Z,7.85
2022-09-27T02:13:24.671Z,6.60
2022-09-27T02:16:23.638Z,6.22
2022-09-27T02:18:59.786Z,7.18
2022-09-27T02:21:57.467Z,7.05
2022-09-27T02:25:01.583Z,6.72
2022-09-27T02:28:03.003Z,6.47
2022-09-27T02:30:40.187Z,6.95
2022-09-27T02:33:37.005Z,6.30
2022-09-27T02:38:44.269Z,7.93
2022-09-27T02:41:24.196Z,6.65
2022-09-27T02:44:01.894Z,9.77
2022-09-27T02:47:01.936Z,7.13
2022-09-27T02:49:52.158Z,6.75
2022-09-27T02:53:13.239Z,8.45
2022-09-27T02:56:26.181Z,6.03
2022-09-27T03:02:58.042Z,5.70
2022-09-27T03:05:34.246Z,6.05
2022-09-27T03:08:07.756Z,6.22
2022-09-27T03:10:40.225Z,5.93
2022-09-27T03:13:12.875Z,7.53
2022-09-27T03:15:46.927Z,4.55
2022-09-27T03:18:25.691Z,4.75
2022-09-27T03:21:21.507Z,5.13
2022-09-27T03:23:53.923Z,4.85
2022-09-27T03:26:26.969Z,6.15
2022-09-27T03:28:59.297Z,5.68
2022-09-27T03:31:32.092Z,6.63
2022-09-27T03:34:23.746Z,4.53
2022-09-27T03:36:56.625Z,4.60
2022-09-27T03:39:29.977Z,4.90
2022-09-27T03:42:02.312Z,4.53
2022-09-27T03:44:36.332Z,7.10
2022-09-27T03:47:08.878Z,4.10
2022-09-27T03:49:42.927Z,4.47
2022-09-27T03:52:17.163Z,4.50
2022-09-27T03:54:49.898Z,5.78
2022-09-27T03:57:22.324Z,5.07
2022-09-27T03:59:55.023Z,3.80
2022-09-27T04:02:46.146Z,3.90
2022-09-27T04:05:31.189Z,5.35
2022-09-27T04:08:17.274Z,3.75
2022-09-27T04:10:50.402Z,3.25
2022-09-27T04:13:22.816Z,3.47
2022-09-27T04:15:59.158Z,3.33
2022-09-27T04:18:49.453Z,3.50
2022-09-27T04:21:47.111Z,3.28
2022-09-27T04:24:20.641Z,3.38
2022-09-27T04:27:07.016Z,5.30
2022-09-27T04:29:47.143Z,3.95
2022-09-27T04:32:46.591Z,4.97
2022-09-27T04:36:06.309Z,6.18
2022-09-27T04:38:42.832Z,5.10
2022-09-27T04:41:16.255Z,4.38
2022-09-27T04:43:49.150Z,3.50
2022-09-27T04:46:22.897Z,3.25
2022-09-27T04:48:56.009Z,3.25
2022-09-27T04:51:28.720Z,2.97
2022-09-27T04:54:02.171Z,6.18
2022-09-27T04:56:38.085Z,3.58
2022-09-27T04:59:12.499Z,3.03
2022-09-27T05:01:46.968Z,3.13
2022-09-27T05:04:42.010Z,2.80
2022-09-27T05:07:15.404Z,3.30
2022-09-27T05:09:50.785Z,3.00
2022-09-27T05:12:23.911Z,2.97
2022-09-27T05:15:02.961Z,2.72
2022-09-27T05:18:13.819Z,3.40
2022-09-27T05:21:06.238Z,2.45
2022-09-27T05:23:47.249Z,2.97
2022-09-27T05:26:20.842Z,3.03
2022-09-27T05:28:54.322Z,2.22
2022-09-27T05:31:28.204Z,4.63
2022-09-27T05:34:01.174Z,3.08
2022-09-27T05:36:40.949Z,3.05
2022-09-27T05:39:13.516Z,3.70
2022-09-27T05:41:46.534Z,2.75
2022-09-27T05:44:19.709Z,4.78
2022-09-27T05:47:17.913Z,2.50
2022-09-27T05:49:50.360Z,2.65
2022-09-27T05:52:23.326Z,2.63
2022-09-27T05:54:56.416Z,2.53
2022-09-27T05:57:28.852Z,2.70
2022-09-27T06:00:06.724Z,4.97
2022-09-27T06:02:45.950Z,2.53
2022-09-27T06:05:41.371Z,2.30
2022-09-27T06:08:35.827Z,3.50
2022-09-27T06:11:13.970Z,2.88
2022-09-27T06:13:46.625Z,2.10
2022-09-27T06:16:19.265Z,2.95
2022-09-27T06:18:51.760Z,2.95
2022-09-27T06:21:24.268Z,2.58
2022-09-27T06:24:04.277Z,4.20
2022-09-27T06:26:40.349Z,1.95
2022-09-27T06:29:18.492Z,2.30
2022-09-27T06:32:02.410Z,7.75
2022-09-27T06:34:52.587Z,2.75
2022-09-27T06:37:28.559Z,2.85
2022-09-27T06:40:01.180Z,3.20
2022-09-27T06:42:51.937Z,2.28
2022-09-27T06:45:47.165Z,2.13
2022-09-27T06:48:48.848Z,3.25
2022-09-27T06:51:24.498Z,2.88
2022-09-27T06:53:56.974Z,2.75
2022-09-27T06:56:30.269Z,3.13
2022-09-27T06:59:21.139Z,2.42
2022-09-27T07:01:54.393Z,2.60
2022-09-27T07:04:42.142Z,7.28
2022-09-27T07:07:46.759Z,2.40
2022-09-27T07:10:19.721Z,2.53
2022-09-27T07:12:52.162Z,3.25
2022-09-27T07:15:24.769Z,2.65
2022-09-27T07:18:00.083Z,3.22
2022-09-27T07:20:35.627Z,2.40
2022-09-27T07:23:10.756Z,7.32
2022-09-27T07:25:43.284Z,3.05
2022-09-27T07:28:21.976Z,6.07
2022-09-27T07:30:59.148Z,3.17
2022-09-27T07:33:32.990Z,2.80
2022-09-27T07:36:12.994Z,2.28
2022-09-27T07:38:48.145Z,2.47
2022-09-27T07:41:23.610Z,2.75
2022-09-27T07:43:56.114Z,4.15
2022-09-27T07:46:31.740Z,2.50
2022-09-27T07:49:22.814Z,2.70
2022-09-27T07:52:00.861Z,6.78
2022-09-27T07:54:44.322Z,2.13
2022-09-27T07:57:46.569Z,4.03
2022-09-27T08:00:21.590Z,2.78
2022-09-27T08:02:54.026Z,6.03
2022-09-27T08:05:26.417Z,4.35
2022-09-27T08:07:59.201Z,3.03
2022-09-27T08:10:33.908Z,2.58
2022-09-27T08:13:07.570Z,5.35
2022-09-27T08:15:43.249Z,3.53
2022-09-27T08:18:15.814Z,2.55
2022-09-27T08:21:00.820Z,3.63
2022-09-27T08:23:39.911Z,3.00
2022-09-27T08:26:30.858Z,4.30
2022-09-27T08:31:47.631Z,2.72
2022-09-27T08:34:20.133Z,3.17
2022-09-27T08:36:53.022Z,5.18
2022-09-27T08:39:25.815Z,2.90
2022-09-27T08:42:15.171Z,3.30
2022-09-27T08:45:03.572Z,3.95
2022-09-27T08:47:45.422Z,5.55
2022-09-27T08:50:30.814Z,4.35
2022-09-27T08:53:35.386Z,3.83
2022-09-27T08:56:11.273Z,2.58
2022-09-27T08:59:03.058Z,3.33
2022-09-27T09:01:38.761Z,7.03
2022-09-27T09:04:21.591Z,3.75
2022-09-27T09:07:12.553Z,6.13
2022-09-27T09:10:11.009Z,3.90
2022-09-27T09:13:00.628Z,3.63
2022-09-27T09:16:05.661Z,4.35
2022-09-27T09:19:03.187Z,3.63
2022-09-27T09:22:30.501Z,3.33
2022-09-27T09:25:19.818Z,7.07
2022-09-27T09:28:21.511Z,4.05
2022-09-27T09:31:39.529Z,7.47
2022-09-27T09:34:26.964Z,5.57
2022-09-27T09:37:06.481Z,5.40
2022-09-27T09:40:09.847Z,4.75
2022-09-27T09:43:10.128Z,4.65
2022-09-27T09:45:50.131Z,5.05
2022-09-27T09:48:40.919Z,4.55
2022-09-27T09:54:04.525Z,4.28
2022-09-27T09:56:54.829Z,4.15
2022-09-27T09:59:27.856Z,4.13
2022-09-27T10:02:21.711Z,6.35
2022-09-27T10:04:54.545Z,7.07
2022-09-27T10:07:28.863Z,4.65
2022-09-27T10:10:04.213Z,4.18
2022-09-27T10:12:52.683Z,6.72
2022-09-27T10:15:32.425Z,6.20
2022-09-27T10:18:05.754Z,4.40
2022-09-27T10:20:44.654Z,6.35
2022-09-27T10:23:21.079Z,5.28
2022-09-27T10:26:10.643Z,5.65
2022-09-27T10:28:52.594Z,5.90
2022-09-27T10:31:39.990Z,5.65
2022-09-27T10:34:39.341Z,8.05
2022-09-27T10:37:18.741Z,11.35
2022-09-27T10:40:29.844Z,7.57
2022-09-27T10:43:04.955Z,6.88
2022-09-27T10:46:05.664Z,6.43
2022-09-27T10:48:43.671Z,5.20
2022-09-27T10:51:24.943Z,6.32
2022-09-27T10:54:03.026Z,4.82
2022-09-27T10:56:41.029Z,5.88
2022-09-27T10:59:21.213Z,9.85
2022-09-27T11:01:54.495Z,4.47
2022-09-27T11:05:04.115Z,5.27
2022-09-27T11:07:40.130Z,4.50
2022-09-27T11:10:32.939Z,5.55
2022-09-27T11:13:21.600Z,4.85
2022-09-27T11:16:03.125Z,7.13
2022-09-27T11:18:54.853Z,8.55
2022-09-27T11:21:58.572Z,8.05
2022-09-27T11:25:02.338Z,8.70
2022-09-27T11:28:02.278Z,19.27
2022-09-27T11:33:41.909Z,23.35
2022-09-27T11:36:38.551Z,27.95
2022-09-27T11:39:34.285Z,19.95
2022-09-27T11:42:34.842Z,18.05
2022-09-27T11:46:14.245Z,14.38
2022-09-27T11:49:02.272Z,12.88
2022-09-27T11:51:37.354Z,14.10
2022-09-27T11:54:40.475Z,11.98
2022-09-27T11:57:27.986Z,14.98
2022-09-27T12:00:19.371Z,9.90
2022-09-27T12:03:44.267Z,9.82
2022-09-27T12:06:41.990Z,10.02
2022-09-27T12:09:22.619Z,7.15
2022-09-27T12:12:08.592Z,7.70
2022-09-27T12:14:53.129Z,7.28
2022-09-27T12:17:32.668Z,6.65
2022-09-27T12:20:27.517Z,15.85
2022-09-27T12:23:09.436Z,9.50
2022-09-27T12:26:27.219Z,10.20
2022-09-27T12:29:15.612Z,13.48
2022-09-27T12:32:20.374Z,9.93
2022-09-27T12:34:53.500Z,7.72
2022-09-27T12:37:53.695Z,6.43
2022-09-27T12:40:29.440Z,7.28
2022-09-27T12:43:25.315Z,5.78
2022-09-27T12:46:44.935Z,7.95
2022-09-27T12:49:34.571Z,5.28
2022-09-27T12:52:14.966Z,4.82
2022-09-27T12:55:12.664Z,11.27
2022-09-27T12:57:45.964Z,18.08
2022-09-27T13:00:49.916Z,11.57
2022-09-27T13:03:52.456Z,19.73
2022-09-27T13:06:53.378Z,13.30
2022-09-27T13:09:47.694Z,5.00
2022-09-27T13:12:27.990Z,20.60
2022-09-27T13:15:17.244Z,16.98
2022-09-27T13:18:00.010Z,11.63
2022-09-27T13:20:53.670Z,8.52
2022-09-27T13:24:02.794Z,6.88
2022-09-27T13:26:48.762Z,7.07
2022-09-27T13:29:29.050Z,8.05
2022-09-27T13:32:20.442Z,10.88
2022-09-27T13:35:28.554Z,6.10
2022-09-27T13:38:27.467Z,5.03
2022-09-27T13:41:50.867Z,5.20
2022-09-27T13:44:37.063Z,4.65
2022-09-27T13:47:39.225Z,5.07
2022-09-27T13:50:28.501Z,7.70
2022-09-27T13:53:20.409Z,4.35
2022-09-27T13:55:55.604Z,4.85
2022-09-27T13:59:03.573Z,9.35
2022-09-27T14:02:27.814Z,8.82
2022-09-27T14:05:04.678Z,10.45
2022-09-27T14:07:44.463Z,9.00
2022-09-27T14:10:24.887Z,6.85
2022-09-27T14:13:00.743Z,9.02
2022-09-27T14:15:36.853Z,7.95
2022-09-27T14:18:16.550Z,10.02
2022-09-27T14:20:54.526Z,19.60
2022-09-27T14:23:55.842Z,5.75
2022-09-27T14:26:30.270Z,5.85
2022-09-27T14:29:03.556Z,14.40
2022-09-27T14:31:40.586Z,6.28
2022-09-27T14:34:18.890Z,6.38
2022-09-27T14:37:12.354Z,12.50
2022-09-27T14:40:00.847Z,8.15
2022-09-27T14:42:39.111Z,8.63
2022-09-27T14:45:23.069Z,9.45
2022-09-27T14:47:55.509Z,8.90
2022-09-27T14:50:31.050Z,15.40
2022-09-27T14:53:06.620Z,6.03
2022-09-27T14:55:40.137Z,9.95
2022-09-27T14:58:42.834Z,6.85
2022-09-27T15:01:16.553Z,18.42
2022-09-27T15:03:54.994Z,8.95
2022-09-27T15:06:27.694Z,8.93
2022-09-27T15:09:01.935Z,6.78
2022-09-27T15:11:36.409Z,7.35
2022-09-27T15:14:17.547Z,7.65
2022-09-27T15:16:52.196Z,6.60
2022-09-27T15:19:31.121Z,7.63
2022-09-27T15:22:37.447Z,12.30
2022-09-27T15:25:20.307Z,15.70
2022-09-27T15:27:55.677Z,6.45
2022-09-27T15:30:43.542Z,7.70
2022-09-27T15:33:23.632Z,7.00
2022-09-27T15:36:07.967Z,6.70
2022-09-27T15:38:50.066Z,5.70
2022-09-27T15:41:23.167Z,6.53
2022-09-27T15:43:55.793Z,6.50
2022-09-27T15:46:39.984Z,7.88
2022-09-27T15:49:31.989Z,8.93
2022-09-27T15:52:06.617Z,10.20
2022-09-27T15:54:39.533Z,6.28
2022-09-27T15:57:14.341Z,6.43
2022-09-27T15:59:46.710Z,5.72
2022-09-27T16:02:21.158Z,6.22
2022-09-27T16:04:53.505Z,6.25
2022-09-27T16:07:26.134Z,5.55
2022-09-27T16:09:58.523Z,5.25
2022-09-27T16:12:32.755Z,5.20
2022-09-27T16:15:05.284Z,5.30
2022-09-27T16:17:39.990Z,5.20
2022-09-27T16:20:26.363Z,6.53
2022-09-27T16:22:59.661Z,8.82
2022-09-27T16:25:32.521Z,5.05
2022-09-27T16:28:06.694Z,6.85
2022-09-27T16:30:39.857Z,4.68
2022-09-27T16:33:12.188Z,5.55
2022-09-27T16:35:44.750Z,4.70
2022-09-27T16:38:18.287Z,4.25
2022-09-27T16:40:50.726Z,6.55
2022-09-27T16:43:23.229Z,4.03
2022-09-27T16:45:56.415Z,4.38
2022-09-27T16:48:28.783Z,3.85
2022-09-27T16:51:35.043Z,7.38
2022-09-27T16:54:08.980Z,3.92
2022-09-27T16:56:41.485Z,3.90
2022-09-27T16:59:13.861Z,3.92
2022-09-27T17:01:46.804Z,3.80
2022-09-27T17:04:19.256Z,3.38
2022-09-27T17:06:51.570Z,3.67
2022-09-27T17:09:24.348Z,4.68
2022-09-27T17:11:57.826Z,4.13
2022-09-27T17:14:30.290Z,4.45
2022-09-27T17:17:03.175Z,4.38
2022-09-27T17:19:35.573Z,3.97
2022-09-27T17:22:10.117Z,4.43
2022-09-27T17:24:43.068Z,4.57
2022-09-27T17:27:15.536Z,5.50
2022-09-27T17:29:48.452Z,5.53
2022-09-27T17:32:25.788Z,6.00
2022-09-27T17:34:58.817Z,5.85
2022-09-27T17:37:31.812Z,6.13
2022-09-27T17:40:05.640Z,7.32
2022-09-27T17:42:39.295Z,6.07
2022-09-27T17:45:12.093Z,5.32
2022-09-27T17:48:02.795Z,5.55
2022-09-27T17:50:35.133Z,8.40
2022-09-27T17:53:07.788Z,4.72
2022-09-27T17:55:40.102Z,5.38
2022-09-27T17:58:12.458Z,5.10
2022-09-27T18:00:45.039Z,4.68
2022-09-27T18:03:17.394Z,4.95
2022-09-27T18:05:49.887Z,4.80
2022-09-27T18:08:22.673Z,4.68
2022-09-27T18:10:55.185Z,5.30
2022-09-27T18:13:27.532Z,8.50
2022-09-27T18:16:01.028Z,6.05
2022-09-27T18:18:38.102Z,7.78
2022-09-27T18:21:13.262Z,6.18
2022-09-27T18:23:45.882Z,5.93
2022-09-27T18:26:18.375Z,5.80
2022-09-27T18:28:50.734Z,6.53
2022-09-27T18:31:27.566Z,5.85
2022-09-27T18:34:00.085Z,6.15
2022-09-27T18:36:32.483Z,15.07
2022-09-27T18:39:07.390Z,6.07
2022-09-27T18:41:40.088Z,8.85
2022-09-27T18:44:15.027Z,5.95
2022-09-27T18:46:47.674Z,6.20
2022-09-27T18:49:23.516Z,6.82
2022-09-27T18:51:58.677Z,6.40
2022-09-27T18:54:31.064Z,7.10
2022-09-27T18:57:03.408Z,7.13
2022-09-27T18:59:36.385Z,6.13
2022-09-27T19:02:09.202Z,6.47
2022-09-27T19:04:42.209Z,6.53
2022-09-27T19:07:14.509Z,6.60
2022-09-27T19:09:46.867Z,7.25
2022-09-27T19:12:19.377Z,6.55
2022-09-27T19:14:53.977Z,8.15
2022-09-27T19:17:26.409Z,7.13
2022-09-27T19:19:58.743Z,8.27
2022-09-27T19:22:31.428Z,6.97
2022-09-27T19:25:03.750Z,7.10
2022-09-27T19:27:43.012Z,6.63
2022-09-27T19:30:16.139Z,6.93
2022-09-27T19:32:48.888Z,6.63
2022-09-27T19:35:21.252Z,6.70
2022-09-27T19:37:53.827Z,6.90
2022-09-27T19:40:26.346Z,6.68
2022-09-27T19:42:58.785Z,7.15
2022-09-27T19:45:31.126Z,6.75
2022-09-27T19:48:03.786Z,7.00
2022-09-27T19:50:36.163Z,7.40
2022-09-27T19:53:11.008Z,7.80
2022-09-27T19:55:44.113Z,6.97
2022-09-27T19:58:16.495Z,7.25
2022-09-27T20:00:49.305Z,6.88
2022-09-27T20:03:21.689Z,6.30
2022-09-27T20:05:58.515Z,7.07
2022-09-27T20:08:31.902Z,7.97
2022-09-27T20:11:12.900Z,6.70
2022-09-27T20:13:46.188Z,6.65
2022-09-27T20:16:20.184Z,7.25
2022-09-27T20:18:57.268Z,9.35
2022-09-27T20:21:35.792Z,6.30
2022-09-27T20:24:08.414Z,6.68
2022-09-27T20:26:41.560Z,6.53
2022-09-27T20:29:13.957Z,6.20
2022-09-27T20:32:08.961Z,5.38
2022-09-27T20:34:38.644Z,6.30
2022-09-27T20:37:10.980Z,6.03
2022-09-27T20:39:43.378Z,7.95
2022-09-27T20:42:15.899Z,9.60
2022-09-27T20:44:53.312Z,6.05
2022-09-27T20:47:26.616Z,10.43
2022-09-27T20:49:58.936Z,5.63
2022-09-27T20:52:31.256Z,5.63
2022-09-27T20:55:04.475Z,7.93
2022-09-27T20:57:56.427Z,5.10
2022-09-27T21:00:29.397Z,8.70
2022-09-27T21:03:02.325Z,5.05
2022-09-27T21:05:34.648Z,5.68
2022-09-27T21:08:07.544Z,5.03
2022-09-27T21:10:40.160Z,4.85
2022-09-27T21:13:12.459Z,5.05
2022-09-27T21:15:45.384Z,4.40
2022-09-27T21:18:17.911Z,5.75
2022-09-27T21:21:00.103Z,5.30
2022-09-27T21:23:33.509Z,4.35
2022-09-27T21:26:14.520Z,4.53
2022-09-27T21:28:47.946Z,4.28
2022-09-27T21:31:25.277Z,4.07
2022-09-27T21:34:00.681Z,5.30
2022-09-27T21:36:35.722Z,4.45
2022-09-27T21:39:10.199Z,4.93
2022-09-27T21:41:42.889Z,3.90
2022-09-27T21:44:15.388Z,4.30
2022-09-27T21:46:48.319Z,5.05
2022-09-27T21:49:20.723Z,4.82
2022-09-27T21:51:53.013Z,5.00
2022-09-27T21:56:57.333Z,4.47
2022-09-27T21:59:29.635Z,4.80
2022-09-27T22:02:01.947Z,6.50
2022-09-27T22:04:34.388Z,4.45
2022-09-27T22:07:06.943Z,6.82
2022-09-27T22:09:39.587Z,4.55
2022-09-27T22:12:11.918Z,8.30
2022-09-27T22:14:44.234Z,4.82
2022-09-27T22:17:16.797Z,5.00
2022-09-27T22:19:49.068Z,4.95
2022-09-27T22:24:53.307Z,8.80
2022-09-27T22:27:25.654Z,6.53
2022-09-27T22:29:58.055Z,6.20
2022-09-27T22:32:30.705Z,4.07
2022-09-27T22:35:03.073Z,5.57
2022-09-27T22:37:36.199Z,5.53
2022-09-27T22:40:09.175Z,4.53
2022-09-27T22:42:41.592Z,4.32
2022-09-27T22:45:14.029Z,7.95
2022-09-27T22:47:46.507Z,5.30
2022-09-27T22:50:18.881Z,5.57
2022-09-27T22:52:51.233Z,5.10
2022-09-27T22:57:55.914Z,5.25
2022-09-27T23:00:28.271Z,4.63
2022-09-27T23:03:01.277Z,5.30
2022-09-27T23:05:33.714Z,5.70
2022-09-27T23:08:06.195Z,4.68
2022-09-27T23:10:39.350Z,4.78
2022-09-27T23:13:11.968Z,6.43
2022-09-27T23:15:44.394Z,5.82
2022-09-27T23:18:17.165Z,7.82
2022-09-27T23:20:49.591Z,9.40
2022-09-27T23:23:21.948Z,5.90
2022-09-27T23:26:03.825Z,12.45
2022-09-27T23:28:36.774Z,5.13
2022-09-27T23:31:18.335Z,15.25
2022-09-27T23:33:52.409Z,5.23
2022-09-27T23:36:28.458Z,7.40
2022-09-27T23:39:02.776Z,8.30
2022-09-27T23:41:35.249Z,9.20
2022-09-27T23:44:07.614Z,7.90
2022-09-27T23:46:40.185Z,7.75
2022-09-27T23:49:14.316Z,9.40
2022-09-27T23:51:46.896Z,8.13
2022-09-27T23:54:19.206Z,8.95
2022-09-27T23:56:51.596Z,9.68
2022-09-27T23:59:24.314Z,12.65
